• Join FlightAware (Why Join?)
  • Login
  • US Flag 
08:49AM EDT


 

Airport Tracker/Info


-or-


 

Live Flight TrackerFlight Track Log ✈ AWE3418 ✈ 07-Apr-2013 ✈ KPHL - KMHT

Flight Track Log - Related Links

Times and Time Zones

All times are in EDT time to prevent confusion due to time zone crossing. See the AWE3418 flight status page for this flight to view local times or setup timezone preferences in your user account.

Time Position Orientation Groundspeed Altitude Reporting Facility
EDT Latitude Longitude Course Direction KTS MPH feet Rate Location/Type
08:02PM 39.8667 -75.2667 37° Northeast 145 167 900  Level Philadelphia TRACON
08:03PM 39.8450 -75.2861 215° Southwest 139 160 2,600 2,700 Climbing FAA TRACON SMA TRACON (SMA)
08:03PM 39.8331 -75.2975 216° Southwest 178 205 3,300 2,520 Climbing FAA TRACON SMA TRACON (SMA)
08:04PM 39.8197 -75.3094 215° Southwest 190 219 4,300 3,420 Climbing FAA TRACON SMA TRACON (SMA)
08:04PM 39.8031 -75.3239 214° Southwest 191 220 5,600 3,420 Climbing FAA TRACON SMA TRACON (SMA)
08:04PM 39.7897 -75.3344 211° Southwest 198 228 6,600 3,300 Climbing FAA TRACON SMA TRACON (SMA)
08:05PM 39.8167 -74.8830 90° East  Level FlightAware Approximate
08:05PM 39.7728 -75.3489 213° Southwest 207 238 7,800  Level FAA TRACON SMA TRACON (SMA)
08:05PM 39.7525 -75.3639 210° Southwest 216 249 9,000 3,120 Climbing FAA TRACON SMA TRACON (SMA)
08:05PM 39.7331 -75.3628 177° South 237 273 9,900 3,420 Climbing FAA TRACON SMA TRACON (SMA)
08:06PM 39.7962 -74.7642 105° East  Level FlightAware Approximate
08:06PM 39.7122 -75.3364 136° Southeast 260 299 11,300  Level FAA TRACON SMA TRACON (SMA)
08:06PM 39.7100 -75.3069 96° East 272 313 11,900 1,020 Climbing FAA TRACON SMA TRACON (SMA)
08:06PM 39.7136 -75.2750 82° East 312 359 12,000 120 Climbing FAA TRACON SMA TRACON (SMA)
08:07PM 39.8173 -74.6661 37° Northeast  Level FlightAware Approximate
08:07PM 39.7211 -75.2264 79° East 366 421 12,000  Level FAA TRACON SMA TRACON (SMA)
08:07PM 39.7272 -75.1847 79° East 394 453 12,000  Level FAA TRACON SMA TRACON (SMA)
08:07PM 39.7333 -75.1428 79° East 394 453 12,000  Level FAA TRACON SMA TRACON (SMA)
08:08PM 39.8918 -74.5916 37° Northeast  Level FlightAware Approximate
08:08PM 39.7411 -75.0881 80° East 395 455 12,000  Level FAA TRACON SMA TRACON (SMA)
08:08PM 39.7467 -75.0469 80° East 394 453 12,000  Level FAA TRACON SMA TRACON (SMA)
08:08PM 39.7533 -75.0025 79° East 394 453 12,000  Level FAA TRACON SMA TRACON (SMA)
08:09PM 39.7608 -74.9489 80° East 394 453 12,000  Level FAA TRACON SMA TRACON (SMA)
08:09PM 39.7669 -74.9061 79° East 394 453 12,000  Level FAA TRACON SMA TRACON (SMA)
08:09PM 39.7731 -74.8628 80° East 395 455 12,000 300 Level FAA TRACON SMA TRACON (SMA)
08:10PM 39.7803 -74.8092 80° East 395 455 12,200 1,620 Climbing FAA TRACON SMA TRACON (SMA)
08:10PM 39.7867 -74.7656 79° East 395 455 13,100 3,000 Climbing FAA TRACON SMA TRACON (SMA)
08:10PM 39.7981 -74.7253 70° East 392 451 14,200 3,900 Climbing FAA TRACON SMA TRACON (SMA)
08:11PM 39.8297 -74.6814 47° Northeast 358 412 15,900 3,900 Climbing FAA TRACON SMA TRACON (SMA)
08:11PM 39.8536 -74.6581 37° Northeast 372 428 17,100 3,300 Climbing FAA TRACON SMA TRACON (SMA)
08:11PM 39.8797 -74.6325 37° Northeast 357 411 18,000 900 Climbing FAA TRACON SMA TRACON (SMA)
08:12PM 39.8797 -74.6325 360° North 357 411 18,000 2,040 Level FAA TRACON SMA TRACON (SMA)
08:14PM 40.0647 -74.4486 37° Northeast 390 449 22,900 2,880 Climbing New York Center
08:15PM 40.1528 -74.3611 37° Northeast 395 455 25,700 2,580 Climbing New York Center
08:16PM 40.2406 -74.2839 34° Northeast 395 455 28,100 2,100 Climbing New York Center
08:17PM 40.3369 -74.2617 10° North 366 421 30,000 1,500 Climbing New York Center
08:18PM 40.4419 -74.2425 North 366 421 31,100 1,020 Climbing New York Center
08:19PM 40.5486 -74.2233 North 376 433 32,100 720 Climbing New York Center
08:20PM 40.7319 -74.1931 North 399 459 33,000 300 Climbing Boston Center
08:21PM 40.8428 -74.1714 North 424 488 33,000  Level Boston Center
08:22PM 40.9725 -74.1444 North 453 521 33,000  Level Boston Center
08:23PM 41.1061 -74.1233 North 468 539 33,000  Level Boston Center
08:24PM 41.2336 -74.0961 North 473 544 33,000  Level Boston Center
08:25PM 41.3736 -74.0667 North 467 537 33,000  Level Boston Center
08:26PM 41.4950 -74.0475 North 474 545 33,000  Level Boston Center
08:27PM 41.6244 -74.0231 North 474 545 33,000  Level Boston Center
08:28PM 41.7542 -73.9956 North 469 540 33,000  Level Boston Center
08:29PM 41.8697 -73.9261 24° Northeast 449 517 33,000 -300 Level Boston Center
08:30PM 41.9528 -73.7772 53° Northeast 451 519 32,400 -1,680 Descending Boston Center
08:31PM 42.0275 -73.6222 57° Northeast 470 541 29,700 -2,760 Descending Boston Center
08:32PM 42.1061 -73.4586 57° Northeast 495 570 27,000 -2,640 Descending Boston Center
08:33PM 42.1761 -73.3086 58° Northeast 495 570 24,500 -2,220 Descending Boston Center
08:34PM 42.2458 -73.1608 57° Northeast 482 555 22,500 -2,220 Descending Boston Center
08:35PM 42.3136 -73.0183 57° Northeast 463 533 20,100 -1,800 Descending Boston Center
08:36PM 42.3828 -72.8731 57° Northeast 458 527 19,000 -600 Descending Boston Center
08:37PM 42.4542 -72.7158 58° Northeast 442 509 19,000  Level Boston Center
08:38PM 42.5211 -72.5781 57° Northeast 442 509 19,000 -300 Level Boston Center
08:39PM 42.5858 -72.4372 58° Northeast 442 509 18,400 -1,860 Descending Boston Center
08:40PM 42.6503 -72.2989 58° Northeast 437 503 15,300 -2,820 Descending Boston Center
08:41PM 42.7106 -72.1661 58° Northeast 426 490 12,800 -2,220 Descending Boston Center
08:42PM 42.7625 -72.0639 55° Northeast 385 443 10,900 -1,980 Descending Boston Center
08:43PM 42.8244 -71.9644 50° Northeast 332 382 9,000 -1,740 Descending Boston Center
08:44PM 42.8742 -71.8819 51° Northeast 303 349 7,500 -1,680 Descending Boston Center
08:45PM 42.9342 -71.7908 48° Northeast 298 343 5,700 -1,740 Descending Boston Center
08:46PM 42.9794 -71.7050 54° Northeast 298 343 4,000 -1,320 Descending Boston Center
08:47PM 43.0267 -71.6022 58° Northeast 298 343 3,100 -780 Descending Boston Center
08:48PM 43.0553 -71.5336 60° Northeast 256 295 2,500 -660 Descending Boston Center